Needles Airport
KEED : rendu visible

Aérodrome :











RETROUVEZ-NOUS SUR...

 
LOGIN :

S'inscrire | Disclaimer

   EN    FR    IT 

 









Légende :    VFR   VFR Marginal   IFR   IFR Intensif   IFR Très Intensif
Visi : 
Plafond : 
>= 8 km
>= 3000ft
5 à 8 km
1000 à 3000 ft
1500m à 5 km
500 à 1000 ft
800 à 1500m
200 à 500 ft
< 800m
< 200 ft
Symboles :   Orages  Brouillard  Fortes neiges  Fortes précipitations  Vent > 20 kt






- Altitude de l'aérodrome : 983 ft


KEED - Needles

DERNIER METAR :
  • 181756Z AUTO 01011KT 10SM CLR 13/M07 A3035 RMK AO2 SLP269 T01331072 10133 20072 51015

METARs EXPIRÉS :
  • 181656Z AUTO 34007KT 10SM CLR 12/M07 A3034 RMK AO2 SLP266 T01171067
  • 181556Z AUTO 32006KT 10SM CLR 10/M07 A3033 RMK AO2 SLP260 T01001067

TAF KEED
Valide du 18 à 18h jusqu'au 19 à 18h UTC


181740Z 1818/1918 35010KT P6SM FEW250
FM182000 01014G22KT P6SM SCT150 BKN250
FM190100 32008KT P6SM BKN200



MET'MAP, la Météo Aéronautique d'un coup d'oeil ! - Copyright ORBIFLY Décembre 2007 - Disclaimer

ORBIFLY MET'MAP TEAM :

Programmation & Développement : Alexandra Zaïnal
Sur une idée originale de : Baudouin d'Aumeries
Assistance à la programmation : Marc-Olivier Méhu
Soutien technique & logistique : Manuel Goepfert

Contact : metmap@orbifly.com




SOURCES & CREDITS :

   NOAA       Earth
Advisory